Time;durP1;ratioP1;P1;durP2;ratioP2;P2;SDS_P1;SDS_P2;PMS_P1;PMS_P2;Temp;Humidity;BMP_temperature;BMP_pressure;BME280_temperature;BME280_humidity;BME280_pressure;Samples;Min_cycle;Max_cycle;Signal;HPM_P1;HPM_P2
2022/01/23 00:02:59;;;;;;;33.05;11.80;;;;;;;;;;6226976;28;20045;-60
2022/01/23 00:05:59;;;;;;;26.05;10.63;;;;;;;;;;6225634;28;20404;-63
2022/01/23 00:09:00;;;;;;;28.23;10.95;;;;;;;;;;6227100;28;20064;-63
2022/01/23 00:12:05;;;;;;;27.45;10.65;;;;;;;;;;6227170;28;20137;-65
2022/01/23 00:18:28;;;;;;;32.38;10.90;;;;;;;;;;6228003;28;21172;-63
2022/01/23 00:21:29;;;;;;;30.27;10.98;;;;;;;;;;6229937;28;20052;-63
2022/01/23 00:31:08;;;;;;;36.22;11.52;;;;;;;;;;6226065;28;20096;-63
2022/01/23 00:34:09;;;;;;;36.13;11.88;;;;;;;;;;6224986;28;20050;-64
2022/01/23 00:37:09;;;;;;;32.50;11.82;;;;;;;;;;6228398;28;20057;-62
2022/01/23 00:40:11;;;;;;;31.98;11.07;;;;;;;;;;6227759;28;20550;-63
2022/01/23 00:43:30;;;;;;;35.13;13.23;;;;;;;;;;6223008;28;20081;-62
2022/01/23 00:46:34;;;;;;;30.83;12.18;;;;;;;;;;6224652;28;20075;-61
2022/01/23 00:49:35;;;;;;;29.70;12.20;;;;;;;;;;6226259;28;20083;-63
2022/01/23 00:52:35;;;;;;;32.15;12.63;;;;;;;;;;6224468;28;20065;-64
2022/01/23 00:55:38;;;;;;;35.45;13.13;;;;;;;;;;6225147;28;20065;-62
2022/01/23 00:58:39;;;;;;;38.58;13.63;;;;;;;;;;6225997;28;20143;-62
2022/01/23 01:01:39;;;;;;;42.38;13.88;;;;;;;;;;6228258;28;20049;-62
2022/01/23 01:04:40;;;;;;;37.03;15.30;;;;;;;;;;6229970;28;20049;-63
2022/01/23 01:07:41;;;;;;;34.95;12.82;;;;;;;;;;6232010;28;20520;-63
2022/01/23 01:10:53;;;;;;;40.92;13.80;;;;;;;;;;6233271;28;20132;-63
2022/01/23 01:17:12;;;;;;;42.08;15.68;;;;;;;;;;6225907;28;20041;-62
2022/01/23 01:36:49;;;;;;;38.50;15.38;;;;;;;;;;6218884;28;20643;-63
2022/01/23 01:39:49;;;;;;;40.95;16.10;;;;;;;;;;6223586;28;21466;-62
2022/01/23 01:42:52;;;;;;;40.80;16.05;;;;;;;;;;6222295;28;20136;-61
2022/01/23 01:45:54;;;;;;;41.88;14.90;;;;;;;;;;6225423;28;20397;-62
2022/01/23 01:48:55;;;;;;;40.75;15.32;;;;;;;;;;6222442;28;20096;-61
2022/01/23 01:51:59;;;;;;;44.17;16.60;;;;;;;;;;6223666;28;20084;-61
2022/01/23 01:55:04;;;;;;;41.63;15.10;;;;;;;;;;6223194;28;20295;-62
2022/01/23 01:58:05;;;;;;;45.80;16.23;;;;;;;;;;6223867;28;20056;-61
2022/01/23 02:11:12;;;;;;;57.67;19.70;;;;;;;;;;6223943;28;20041;-63
2022/01/23 02:24:46;;;;;;;46.65;17.90;;;;;;;;;;6232541;28;20488;-63
2022/01/23 02:50:55;;;;;;;51.47;18.08;;;;;;;;;;6236757;28;20053;-61
2022/01/23 02:54:22;;;;;;;49.47;17.77;;;;;;;;;;6234419;28;20261;-63
2022/01/23 02:57:52;;;;;;;52.97;18.15;;;;;;;;;;6234903;28;20045;-63
2022/01/23 03:04:08;;;;;;;50.50;18.15;;;;;;;;;;6235357;28;20045;-64
2022/01/23 03:07:20;;;;;;;49.10;19.73;;;;;;;;;;6231454;28;20050;-64
2022/01/23 03:10:39;;;;;;;48.92;17.52;;;;;;;;;;6231758;28;20049;-62
2022/01/23 03:13:53;;;;;;;52.63;18.67;;;;;;;;;;6234493;28;20053;-63
2022/01/23 03:32:55;;;;;;;53.67;20.55;;;;;;;;;;6235998;28;20065;-64
2022/01/23 03:35:55;;;;;;;53.33;20.40;;;;;;;;;;6234008;28;20056;-61
2022/01/23 03:38:56;;;;;;;54.22;19.23;;;;;;;;;;6234607;28;20067;-61
2022/01/23 03:41:57;;;;;;;50.80;18.92;;;;;;;;;;6234355;28;20049;-64
2022/01/23 03:51:17;;;;;;;53.20;20.05;;;;;;;;;;6233642;28;20675;-64
2022/01/23 03:54:18;;;;;;;57.97;20.55;;;;;;;;;;6232240;28;20099;-65
2022/01/23 03:57:19;;;;;;;51.42;19.48;;;;;;;;;;6239188;28;20060;-64
2022/01/23 04:00:19;;;;;;;48.47;17.70;;;;;;;;;;6235305;28;20033;-64
2022/01/23 04:03:20;;;;;;;46.95;18.17;;;;;;;;;;6236578;28;20045;-62
2022/01/23 04:06:21;;;;;;;43.28;16.20;;;;;;;;;;6236601;28;20037;-64
2022/01/23 04:09:22;;;;;;;49.55;17.58;;;;;;;;;;6233197;28;20058;-64
2022/01/23 04:12:36;;;;;;;53.63;18.88;;;;;;;;;;6249406;28;20048;-64
2022/01/23 04:45:26;;;;;;;45.85;18.63;;;;;;;;;;6212419;28;20460;-62
2022/01/23 05:02:55;;;;;;;64.30;24.55;;;;;;;;;;6217987;28;20046;-63
2022/01/23 05:05:11;;;;;;;56.38;24.70;;;;;;;;;;6191113;28;20524;-63
2022/01/23 05:08:17;;;;;;;64.07;24.02;;;;;;;;;;6193048;28;20064;-62
2022/01/23 05:11:18;;;;;;;63.88;25.52;;;;;;;;;;6198448;28;20049;-63
2022/01/23 05:14:26;;;;;;;67.20;25.08;;;;;;;;;;6212302;28;20127;-63
2022/01/23 05:17:27;;;;;;;60.85;24.58;;;;;;;;;;6212112;28;20386;-61
2022/01/23 05:20:29;;;;;;;65.65;27.00;;;;;;;;;;6212684;28;20042;-62
2022/01/23 05:23:29;;;;;;;68.25;26.90;;;;;;;;;;6211688;28;20305;-62
2022/01/23 05:26:31;;;;;;;64.47;26.55;;;;;;;;;;6211830;28;20489;-63
2022/01/23 05:29:33;;;;;;;70.20;28.07;;;;;;;;;;6211083;28;20049;-62
2022/01/23 05:32:40;;;;;;;68.60;27.73;;;;;;;;;;6212432;28;20582;-62
2022/01/23 05:35:41;;;;;;;76.70;27.55;;;;;;;;;;6212276;28;20057;-62
2022/01/23 05:38:41;;;;;;;74.47;29.40;;;;;;;;;;6210603;28;20405;-62
2022/01/23 05:41:42;;;;;;;66.93;28.27;;;;;;;;;;6230787;28;20148;-62
2022/01/23 05:44:43;;;;;;;65.55;27.98;;;;;;;;;;6235486;28;20038;-62
2022/01/23 05:47:44;;;;;;;70.75;27.95;;;;;;;;;;6232616;28;20128;-65
2022/01/23 05:50:47;;;;;;;71.95;28.70;;;;;;;;;;6237802;28;20056;-63
2022/01/23 05:53:48;;;;;;;68.43;28.25;;;;;;;;;;6236084;28;20044;-63
2022/01/23 05:56:49;;;;;;;68.93;26.85;;;;;;;;;;6238693;28;20069;-64
2022/01/23 05:59:50;;;;;;;64.95;27.88;;;;;;;;;;6236387;28;20045;-63
2022/01/23 06:02:52;;;;;;;73.72;29.38;;;;;;;;;;6236168;28;20073;-63
2022/01/23 06:05:52;;;;;;;60.75;28.33;;;;;;;;;;6234335;28;20136;-63
2022/01/23 06:08:53;;;;;;;61.60;26.80;;;;;;;;;;6235368;28;20048;-63
2022/01/23 06:11:54;;;;;;;73.95;29.48;;;;;;;;;;6236707;28;20140;-63
2022/01/23 06:14:55;;;;;;;69.97;28.35;;;;;;;;;;6235336;28;20841;-63
2022/01/23 06:17:55;;;;;;;71.88;28.75;;;;;;;;;;6234035;28;20076;-62
2022/01/23 06:20:56;;;;;;;69.30;28.73;;;;;;;;;;6233710;28;20049;-63
2022/01/23 06:24:14;;;;;;;71.45;30.70;;;;;;;;;;6235100;28;20052;-63
2022/01/23 06:27:15;;;;;;;74.18;30.20;;;;;;;;;;6235472;28;20075;-63
2022/01/23 06:30:16;;;;;;;72.30;29.77;;;;;;;;;;6233495;28;20492;-63
2022/01/23 06:33:17;;;;;;;76.80;31.20;;;;;;;;;;6235169;28;20092;-63
2022/01/23 06:36:18;;;;;;;72.50;31.35;;;;;;;;;;6234440;28;20045;-61
2022/01/23 06:39:20;;;;;;;70.03;30.88;;;;;;;;;;6234328;28;20055;-63
2022/01/23 06:42:20;;;;;;;75.43;30.75;;;;;;;;;;6233272;28;20089;-62
2022/01/23 06:45:22;;;;;;;69.82;31.25;;;;;;;;;;6234484;28;20718;-63
2022/01/23 06:48:22;;;;;;;74.95;30.70;;;;;;;;;;6231105;28;20484;-62
2022/01/23 06:51:23;;;;;;;69.70;29.70;;;;;;;;;;6244707;28;20135;-61
2022/01/23 06:54:26;;;;;;;72.45;31.67;;;;;;;;;;6237289;28;20084;-63
2022/01/23 06:57:27;;;;;;;73.32;30.27;;;;;;;;;;6232725;28;20192;-63
2022/01/23 07:00:27;;;;;;;73.97;31.20;;;;;;;;;;6234142;28;20304;-62
2022/01/23 07:03:28;;;;;;;65.85;29.48;;;;;;;;;;6237293;28;20147;-62
2022/01/23 07:06:29;;;;;;;74.75;32.88;;;;;;;;;;6239275;28;20583;-61
2022/01/23 07:09:30;;;;;;;65.90;27.70;;;;;;;;;;6235927;28;20038;-60
2022/01/23 07:12:31;;;;;;;71.95;29.15;;;;;;;;;;6239631;28;20479;-59
2022/01/23 07:15:31;;;;;;;63.85;27.10;;;;;;;;;;6235530;28;20401;-60
2022/01/23 07:18:33;;;;;;;70.95;30.08;;;;;;;;;;6243161;28;20510;-62
2022/01/23 07:21:34;;;;;;;68.20;29.87;;;;;;;;;;6234142;28;20513;-60
2022/01/23 07:24:34;;;;;;;72.60;29.48;;;;;;;;;;6233340;28;20069;-64
2022/01/23 07:27:48;;;;;;;63.97;27.85;;;;;;;;;;6234833;28;20045;-63
2022/01/23 07:30:55;;;;;;;78.50;33.20;;;;;;;;;;6238408;28;20093;-61
2022/01/23 07:33:57;;;;;;;74.43;30.75;;;;;;;;;;6229335;28;20504;-63
2022/01/23 07:36:58;;;;;;;73.55;30.23;;;;;;;;;;6239489;28;20874;-64
2022/01/23 07:39:58;;;;;;;74.70;29.15;;;;;;;;;;6239439;28;20054;-61
2022/01/23 07:42:59;;;;;;;79.70;31.95;;;;;;;;;;6243619;28;20049;-64
2022/01/23 07:46:00;;;;;;;74.60;30.55;;;;;;;;;;6240110;28;20064;-63
2022/01/23 07:49:00;;;;;;;74.90;31.58;;;;;;;;;;6239223;28;20041;-64
2022/01/23 07:52:02;;;;;;;72.63;30.95;;;;;;;;;;6238983;28;20038;-62
2022/01/23 07:55:06;;;;;;;69.47;29.15;;;;;;;;;;6240637;28;20052;-61
2022/01/23 07:58:12;;;;;;;72.97;29.35;;;;;;;;;;6245428;28;20033;-63
2022/01/23 08:01:13;;;;;;;71.70;29.83;;;;;;;;;;6256318;28;20057;-64
2022/01/23 08:04:14;;;;;;;72.63;30.08;;;;;;;;;;6242389;28;20497;-60
2022/01/23 08:07:47;;;;;;;75.75;30.45;;;;;;;;;;6239757;28;20447;-62
2022/01/23 08:10:41;;;;;;;86.75;35.08;;;;;;;;;;6235042;28;20084;-59
2022/01/23 08:13:42;;;;;;;89.68;35.65;;;;;;;;;;6237300;28;20045;-63
2022/01/23 08:16:43;;;;;;;93.35;37.22;;;;;;;;;;6239502;28;20042;-62
2022/01/23 08:19:43;;;;;;;93.40;37.00;;;;;;;;;;6236607;28;20227;-63
2022/01/23 08:22:44;;;;;;;93.18;36.40;;;;;;;;;;6237027;28;20045;-61
2022/01/23 08:25:45;;;;;;;91.20;37.38;;;;;;;;;;6259567;28;20140;-62
2022/01/23 08:28:46;;;;;;;88.20;36.90;;;;;;;;;;6250310;28;20090;-61
2022/01/23 08:31:47;;;;;;;91.28;36.15;;;;;;;;;;6247197;28;20129;-62
2022/01/23 08:34:48;;;;;;;92.15;34.70;;;;;;;;;;6243354;28;20046;-63
2022/01/23 08:37:49;;;;;;;86.68;34.15;;;;;;;;;;6243275;28;20081;-62
2022/01/23 08:44:09;;;;;;;82.80;34.13;;;;;;;;;;6228184;28;20104;-61
2022/01/23 08:47:11;;;;;;;91.13;33.33;;;;;;;;;;6242447;28;20046;-62
2022/01/23 08:50:12;;;;;;;91.90;38.83;;;;;;;;;;6252359;28;20061;-61
2022/01/23 08:53:12;;;;;;;83.90;34.38;;;;;;;;;;6246642;28;20033;-60
2022/01/23 08:56:13;;;;;;;92.03;35.67;;;;;;;;;;6256704;28;20049;-61
2022/01/23 08:59:14;;;;;;;90.50;34.08;;;;;;;;;;6245313;28;20071;-61
2022/01/23 09:02:15;;;;;;;88.30;37.45;;;;;;;;;;6242611;28;20038;-61
2022/01/23 09:05:18;;;;;;;88.47;38.72;;;;;;;;;;6265721;28;20098;-59
2022/01/23 09:08:20;;;;;;;87.18;35.05;;;;;;;;;;6250369;28;20522;-60
2022/01/23 09:11:27;;;;;;;96.53;36.20;;;;;;;;;;6244431;28;20489;-61
2022/01/23 09:14:28;;;;;;;95.65;34.80;;;;;;;;;;6242488;28;20104;-61
2022/01/23 09:17:29;;;;;;;78.85;32.20;;;;;;;;;;6247349;28;20445;-62
2022/01/23 09:20:30;;;;;;;88.32;33.35;;;;;;;;;;6244635;28;20041;-61
2022/01/23 09:23:32;;;;;;;88.68;35.40;;;;;;;;;;6254995;28;20049;-61
2022/01/23 09:26:34;;;;;;;96.22;36.92;;;;;;;;;;6258391;28;20049;-60
2022/01/23 09:29:41;;;;;;;;;;;;;;;;;;6242033;28;20447;-61
2022/01/23 09:32:43;;;;;;;90.55;33.83;;;;;;;;;;6251640;28;20015;-61
2022/01/23 09:35:51;;;;;;;88.82;36.00;;;;;;;;;;6248809;28;20500;-61
2022/01/23 09:38:52;;;;;;;93.03;33.58;;;;;;;;;;6233409;28;20100;-62
2022/01/23 09:42:16;;;;;;;89.90;34.10;;;;;;;;;;6235563;28;20049;-62
2022/01/23 09:45:17;;;;;;;92.57;34.97;;;;;;;;;;6242996;28;20046;-62
2022/01/23 09:48:19;;;;;;;91.60;35.00;;;;;;;;;;6248963;28;20458;-61
2022/01/23 09:51:23;;;;;;;86.97;35.17;;;;;;;;;;6240980;28;20040;-62
2022/01/23 09:54:24;;;;;;;96.00;36.95;;;;;;;;;;6245296;28;20045;-65
2022/01/23 09:57:29;;;;;;;88.07;35.13;;;;;;;;;;6232298;28;20100;-63
2022/01/23 10:00:30;;;;;;;90.30;34.30;;;;;;;;;;6235260;28;20119;-63
2022/01/23 10:03:31;;;;;;;96.00;35.65;;;;;;;;;;6234550;28;20041;-64
2022/01/23 10:06:32;;;;;;;96.80;34.55;;;;;;;;;;6237083;28;20546;-64
2022/01/23 10:09:33;;;;;;;83.95;33.08;;;;;;;;;;6239971;28;20044;-65
2022/01/23 10:12:37;;;;;;;98.32;36.10;;;;;;;;;;6232499;28;20053;-64
2022/01/23 10:15:37;;;;;;;88.50;33.67;;;;;;;;;;6232865;28;20136;-63
2022/01/23 10:18:38;;;;;;;96.65;36.15;;;;;;;;;;6234142;28;20045;-63
2022/01/23 10:21:40;;;;;;;96.07;35.65;;;;;;;;;;6234928;28;20481;-64
2022/01/23 10:24:41;;;;;;;90.90;36.00;;;;;;;;;;6239181;28;20081;-62
2022/01/23 10:28:04;;;;;;;95.25;36.08;;;;;;;;;;6235045;28;20080;-65
2022/01/23 10:31:05;;;;;;;97.35;37.38;;;;;;;;;;6230741;28;20412;-66
2022/01/23 10:34:07;;;;;;;92.65;36.85;;;;;;;;;;6234942;28;20044;-64
2022/01/23 10:37:09;;;;;;;94.53;38.05;;;;;;;;;;6233190;28;20123;-64
2022/01/23 10:40:12;;;;;;;99.55;38.85;;;;;;;;;;6234071;28;20053;-62
2022/01/23 10:47:03;;;;;;;104.10;39.40;;;;;;;;;;6233421;28;20092;-62
2022/01/23 10:50:08;;;;;;;94.13;36.45;;;;;;;;;;6231223;28;20041;-65
2022/01/23 10:53:08;;;;;;;93.22;36.40;;;;;;;;;;6230353;28;20057;-64
2022/01/23 10:56:10;;;;;;;90.72;36.67;;;;;;;;;;6233331;28;20627;-62
2022/01/23 10:59:12;;;;;;;116.95;44.53;;;;;;;;;;6232774;28;20061;-63
2022/01/23 11:02:21;;;;;;;114.25;44.70;;;;;;;;;;6231677;28;20079;-62
2022/01/23 11:05:34;;;;;;;103.38;40.10;;;;;;;;;;6231585;28;20057;-63
2022/01/23 11:08:35;;;;;;;97.03;37.13;;;;;;;;;;6231340;28;20100;-63
2022/01/23 11:11:40;;;;;;;89.55;34.47;;;;;;;;;;6233741;28;20041;-62
2022/01/23 11:18:03;;;;;;;90.30;33.85;;;;;;;;;;6230675;28;20049;-63
2022/01/23 11:21:20;;;;;;;88.05;33.50;;;;;;;;;;6230653;28;20069;-62
2022/01/23 11:24:22;;;;;;;82.63;32.65;;;;;;;;;;6230424;28;20081;-64
2022/01/23 11:27:23;;;;;;;92.20;36.97;;;;;;;;;;6232613;28;20050;-63
2022/01/23 11:30:35;;;;;;;95.75;35.50;;;;;;;;;;6231176;28;20041;-61
2022/01/23 11:33:36;;;;;;;98.90;34.90;;;;;;;;;;6229807;28;20500;-62
2022/01/23 11:36:37;;;;;;;84.30;34.60;;;;;;;;;;6235577;28;20050;-62
2022/01/23 11:39:43;;;;;;;83.10;32.25;;;;;;;;;;6233930;28;20488;-63
2022/01/23 11:56:25;;;;;;;74.50;28.70;;;;;;;;;;6230741;28;20508;-65
2022/01/23 11:59:32;;;;;;;69.50;26.80;;;;;;;;;;6229134;28;20072;-64
2022/01/23 12:02:37;;;;;;;70.57;27.92;;;;;;;;;;6228751;28;20502;-65
2022/01/23 12:05:41;;;;;;;74.38;28.50;;;;;;;;;;6233586;28;20053;-62
2022/01/23 12:08:41;;;;;;;72.00;28.88;;;;;;;;;;6234346;28;20080;-66
2022/01/23 12:12:05;;;;;;;83.00;30.92;;;;;;;;;;6228146;28;20127;-63
2022/01/23 12:18:42;;;;;;;70.75;25.00;;;;;;;;;;6234878;28;20045;-64
2022/01/23 12:21:45;;;;;;;101.72;32.60;;;;;;;;;;6239319;28;20411;-60
2022/01/23 12:24:49;;;;;;;;;;;;;;;;;;6237511;28;20083;-63
2022/01/23 12:28:25;;;;;;;90.90;29.98;;;;;;;;;;6236602;28;20261;-60
2022/01/23 12:31:26;;;;;;;122.90;36.50;;;;;;;;;;6234191;28;20524;-64
2022/01/23 12:34:48;;;;;;;92.80;30.90;;;;;;;;;;6232512;28;20047;-66
2022/01/23 12:38:00;;;;;;;156.40;39.60;;;;;;;;;;6236879;28;20130;-64
2022/01/23 12:41:23;;;;;;;77.85;28.00;;;;;;;;;;6234639;28;20440;-64
2022/01/23 12:44:24;;;;;;;66.57;25.20;;;;;;;;;;6234822;28;20095;-63
2022/01/23 12:47:24;;;;;;;67.88;24.67;;;;;;;;;;6236703;28;20129;-65
2022/01/23 12:50:45;;;;;;;63.47;25.60;;;;;;;;;;6236424;28;20100;-64
2022/01/23 12:53:46;;;;;;;73.45;27.80;;;;;;;;;;6234012;28;20037;-65
2022/01/23 12:56:49;;;;;;;71.68;25.45;;;;;;;;;;6236898;28;20096;-65
2022/01/23 12:59:52;;;;;;;62.80;24.30;;;;;;;;;;6236002;28;20044;-65
2022/01/23 13:02:53;;;;;;;118.90;33.72;;;;;;;;;;6241313;28;20514;-61
2022/01/23 13:05:54;;;;;;;79.47;27.92;;;;;;;;;;6241057;28;20522;-65
2022/01/23 13:19:20;;;;;;;66.50;25.90;;;;;;;;;;6235614;28;20052;-64
2022/01/23 13:35:42;;;;;;;66.05;25.05;;;;;;;;;;6233174;28;20410;-65
2022/01/23 13:38:42;;;;;;;69.15;25.55;;;;;;;;;;6236496;28;20064;-65
2022/01/23 13:42:04;;;;;;;69.72;26.05;;;;;;;;;;6237237;28;20057;-64
2022/01/23 13:49:43;;;;;;;61.90;22.90;;;;;;;;;;6236296;28;20095;-64
2022/01/23 13:59:05;;;;;;;59.95;22.38;;;;;;;;;;6234242;28;19928;-62
2022/01/23 14:02:33;;;;;;;64.30;23.15;;;;;;;;;;6235578;28;20077;-64
2022/01/23 14:05:35;;;;;;;78.93;26.95;;;;;;;;;;6232061;28;20154;-65
2022/01/23 14:08:36;;;;;;;71.75;25.08;;;;;;;;;;6232507;28;20088;-64
2022/01/23 14:11:37;;;;;;;70.45;25.50;;;;;;;;;;6233261;28;20044;-63
2022/01/23 14:14:52;;;;;;;70.18;26.85;;;;;;;;;;6233870;28;20054;-63
2022/01/23 14:18:05;;;;;;;69.10;26.10;;;;;;;;;;6235141;28;20496;-62
2022/01/23 14:21:09;;;;;;;68.47;26.33;;;;;;;;;;6229885;28;20045;-64
2022/01/23 14:24:10;;;;;;;70.65;27.27;;;;;;;;;;6237320;28;20737;-63
2022/01/23 14:27:13;;;;;;;71.35;28.30;;;;;;;;;;6238363;28;20057;-64
2022/01/23 14:30:21;;;;;;;78.85;29.02;;;;;;;;;;6234721;28;20038;-60
2022/01/23 14:33:34;;;;;;;78.95;29.00;;;;;;;;;;6234904;28;20068;-59
2022/01/23 14:36:38;;;;;;;81.80;28.83;;;;;;;;;;6231653;28;20041;-60
2022/01/23 14:39:40;;;;;;;78.43;30.80;;;;;;;;;;6232435;28;20081;-63
2022/01/23 14:42:59;;;;;;;73.53;29.02;;;;;;;;;;6232650;28;20257;-63
2022/01/23 14:46:04;;;;;;;77.05;29.15;;;;;;;;;;6232724;28;20140;-65
2022/01/23 14:49:10;;;;;;;76.95;28.10;;;;;;;;;;6233719;28;20045;-62
2022/01/23 14:52:13;;;;;;;93.10;31.20;;;;;;;;;;6231203;28;20085;-62
2022/01/23 14:55:14;;;;;;;81.43;30.00;;;;;;;;;;6236291;28;20051;-61
2022/01/23 14:58:20;;;;;;;101.05;35.92;;;;;;;;;;6232488;28;20103;-66
2022/01/23 15:01:21;;;;;;;107.50;37.92;;;;;;;;;;6232414;28;20048;-65
2022/01/23 15:04:23;;;;;;;95.78;32.83;;;;;;;;;;6232115;28;20412;-63
2022/01/23 15:07:23;;;;;;;91.03;32.65;;;;;;;;;;6232215;28;20041;-61
2022/01/23 15:10:25;;;;;;;85.15;30.52;;;;;;;;;;6232011;28;20406;-64
2022/01/23 15:13:29;;;;;;;86.60;29.60;;;;;;;;;;6232108;28;20057;-62
2022/01/23 15:16:29;;;;;;;79.07;30.77;;;;;;;;;;6233319;28;20459;-65
2022/01/23 15:19:30;;;;;;;82.20;31.27;;;;;;;;;;6231608;28;20054;-61
2022/01/23 15:22:31;;;;;;;87.47;31.52;;;;;;;;;;6232115;28;20041;-65
2022/01/23 15:25:33;;;;;;;90.22;33.05;;;;;;;;;;6234753;28;20048;-61
2022/01/23 15:28:33;;;;;;;89.22;32.80;;;;;;;;;;6233724;28;20045;-63
2022/01/23 15:31:35;;;;;;;95.93;35.03;;;;;;;;;;6232249;28;20052;-65
2022/01/23 15:34:36;;;;;;;88.40;31.90;;;;;;;;;;6232042;28;20049;-65
2022/01/23 15:37:37;;;;;;;82.38;29.20;;;;;;;;;;6232279;28;20047;-66
2022/01/23 15:40:38;;;;;;;77.85;28.20;;;;;;;;;;6233966;28;20037;-66
2022/01/23 15:43:39;;;;;;;89.78;31.00;;;;;;;;;;6234450;28;20155;-62
2022/01/23 15:46:39;;;;;;;84.43;31.65;;;;;;;;;;6230288;28;20045;-66
2022/01/23 15:49:41;;;;;;;80.80;29.38;;;;;;;;;;6233760;28;20095;-63
2022/01/23 15:52:42;;;;;;;85.53;30.10;;;;;;;;;;6233499;28;20159;-66
2022/01/23 15:55:43;;;;;;;79.35;29.95;;;;;;;;;;6240336;28;20034;-62
2022/01/23 15:58:43;;;;;;;85.68;32.42;;;;;;;;;;6238422;28;20532;-65
2022/01/23 16:01:49;;;;;;;85.28;31.58;;;;;;;;;;6231875;28;20493;-63
2022/01/23 16:04:50;;;;;;;94.43;30.50;;;;;;;;;;6230520;28;20084;-62
2022/01/23 16:07:50;;;;;;;90.82;31.50;;;;;;;;;;6228445;28;20045;-64
2022/01/23 16:10:51;;;;;;;77.03;28.65;;;;;;;;;;6227140;28;20485;-63
2022/01/23 16:13:51;;;;;;;83.22;30.27;;;;;;;;;;6223498;28;20751;-60
2022/01/23 16:16:54;;;;;;;83.20;29.85;;;;;;;;;;6226613;28;20060;-63
2022/01/23 16:19:58;;;;;;;81.65;28.27;;;;;;;;;;6228126;28;20056;-60
2022/01/23 16:22:59;;;;;;;85.47;30.67;;;;;;;;;;6226315;28;20476;-61
2022/01/23 16:25:59;;;;;;;104.40;34.63;;;;;;;;;;6225012;28;20042;-63
2022/01/23 16:29:00;;;;;;;105.00;34.78;;;;;;;;;;6228192;28;20033;-63
2022/01/23 16:32:01;;;;;;;94.60;33.30;;;;;;;;;;6230729;28;20056;-61
2022/01/23 16:35:02;;;;;;;97.30;31.73;;;;;;;;;;6231953;28;20096;-63
2022/01/23 16:38:03;;;;;;;97.17;31.87;;;;;;;;;;6235504;28;20069;-64
2022/01/23 16:41:05;;;;;;;90.72;29.83;;;;;;;;;;6233732;28;20670;-68
2022/01/23 16:44:05;;;;;;;105.25;32.03;;;;;;;;;;6227944;28;20054;-63
2022/01/23 16:47:08;;;;;;;97.65;32.10;;;;;;;;;;6234008;28;20525;-65
2022/01/23 16:50:08;;;;;;;75.43;25.70;;;;;;;;;;6228732;28;20687;-62
2022/01/23 16:53:09;;;;;;;86.40;28.40;;;;;;;;;;6230138;28;20483;-61
2022/01/23 16:56:12;;;;;;;100.53;33.35;;;;;;;;;;6231470;28;20060;-62
2022/01/23 16:59:14;;;;;;;110.38;31.67;;;;;;;;;;6233369;28;20060;-58
2022/01/23 17:02:14;;;;;;;104.07;33.97;;;;;;;;;;6230361;28;20057;-62
2022/01/23 17:05:15;;;;;;;114.75;33.80;;;;;;;;;;6226834;28;20061;-61
2022/01/23 17:08:17;;;;;;;123.93;35.47;;;;;;;;;;6231811;28;20042;-62
2022/01/23 17:11:19;;;;;;;82.40;28.25;;;;;;;;;;6230983;28;20060;-61
2022/01/23 17:14:19;;;;;;;85.60;29.60;;;;;;;;;;6230216;28;20049;-61
2022/01/23 17:17:20;;;;;;;66.38;24.52;;;;;;;;;;6232943;28;20401;-61
2022/01/23 17:20:22;;;;;;;65.70;23.77;;;;;;;;;;6231491;28;20563;-62
2022/01/23 17:23:23;;;;;;;79.30;25.73;;;;;;;;;;6232596;28;20131;-69
2022/01/23 17:26:26;;;;;;;91.00;29.98;;;;;;;;;;6230668;28;20041;-62
2022/01/23 17:29:27;;;;;;;108.40;32.13;;;;;;;;;;6230947;28;20060;-62
2022/01/23 17:32:27;;;;;;;101.22;31.95;;;;;;;;;;6232603;28;20042;-62
2022/01/23 17:35:28;;;;;;;90.13;30.42;;;;;;;;;;6229216;28;20041;-61
2022/01/23 17:38:29;;;;;;;100.75;30.48;;;;;;;;;;6232528;28;20041;-62
2022/01/23 17:41:29;;;;;;;100.13;32.13;;;;;;;;;;6228212;28;20547;-61
2022/01/23 17:44:44;;;;;;;92.60;29.95;;;;;;;;;;6229538;28;20057;-63
2022/01/23 17:47:56;;;;;;;83.25;29.02;;;;;;;;;;6232513;28;20057;-62
2022/01/23 17:50:58;;;;;;;71.63;27.27;;;;;;;;;;6229517;28;20080;-61
2022/01/23 17:54:00;;;;;;;84.05;30.27;;;;;;;;;;6230113;28;20330;-61
2022/01/23 17:57:01;;;;;;;84.65;34.90;;;;;;;;;;6230648;28;20091;-61
2022/01/23 18:00:04;;;;;;;100.00;36.03;;;;;;;;;;6230377;28;20045;-63
2022/01/23 18:03:05;;;;;;;173.40;49.47;;;;;;;;;;6231429;28;20053;-61
2022/01/23 18:06:12;;;;;;;168.33;51.23;;;;;;;;;;6229965;28;20119;-62
2022/01/23 18:09:15;;;;;;;173.88;52.97;;;;;;;;;;6237803;28;20927;-60
2022/01/23 18:12:16;;;;;;;139.20;47.97;;;;;;;;;;6237853;28;20053;-60
2022/01/23 18:15:16;;;;;;;93.80;39.05;;;;;;;;;;6236801;28;20523;-63
2022/01/23 18:18:17;;;;;;;74.43;28.45;;;;;;;;;;6240517;28;20053;-61
2022/01/23 18:21:18;;;;;;;73.65;26.88;;;;;;;;;;6241487;28;20041;-63
2022/01/23 18:24:19;;;;;;;87.00;29.53;;;;;;;;;;6232373;28;20148;-63
2022/01/23 18:27:20;;;;;;;92.68;34.55;;;;;;;;;;6241384;28;20045;-64
2022/01/23 18:30:21;;;;;;;95.55;36.22;;;;;;;;;;6242647;28;20424;-62
2022/01/23 18:33:23;;;;;;;99.15;35.65;;;;;;;;;;6238188;28;20033;-62
2022/01/23 18:36:23;;;;;;;119.10;40.20;;;;;;;;;;6229624;28;20125;-62
2022/01/23 18:39:24;;;;;;;181.48;58.35;;;;;;;;;;6234232;28;20072;-62
2022/01/23 18:42:25;;;;;;;138.13;46.42;;;;;;;;;;6234369;28;20064;-63
2022/01/23 18:45:26;;;;;;;161.15;50.55;;;;;;;;;;6237652;28;20049;-61
2022/01/23 18:48:27;;;;;;;192.52;59.60;;;;;;;;;;6239765;28;20135;-62
2022/01/23 18:51:31;;;;;;;194.43;57.88;;;;;;;;;;6240927;28;20053;-62
2022/01/23 18:54:41;;;;;;;183.73;59.78;;;;;;;;;;6239239;28;20156;-63
2022/01/23 18:57:51;;;;;;;155.25;51.30;;;;;;;;;;6233344;28;20050;-63
2022/01/23 19:00:55;;;;;;;190.25;58.60;;;;;;;;;;6237340;28;20053;-60
2022/01/23 19:07:04;;;;;;;148.43;50.55;;;;;;;;;;6234584;28;20045;-62
2022/01/23 19:10:05;;;;;;;163.20;54.83;;;;;;;;;;6235333;28;20582;-61
2022/01/23 19:13:14;;;;;;;156.73;56.78;;;;;;;;;;6234404;28;20056;-64
2022/01/23 19:16:15;;;;;;;225.18;74.07;;;;;;;;;;6233712;28;20087;-59
2022/01/23 19:19:17;;;;;;;247.90;77.53;;;;;;;;;;6239657;28;20049;-64
2022/01/23 19:22:18;;;;;;;186.73;60.55;;;;;;;;;;6235608;28;20056;-63
2022/01/23 19:25:20;;;;;;;136.93;51.40;;;;;;;;;;6230774;28;20144;-60
2022/01/23 19:28:23;;;;;;;138.43;49.17;;;;;;;;;;6241315;28;20136;-61
2022/01/23 19:31:27;;;;;;;139.05;47.55;;;;;;;;;;6244225;28;20076;-65
2022/01/23 19:34:28;;;;;;;133.07;49.70;;;;;;;;;;6238645;28;20072;-62
2022/01/23 19:37:29;;;;;;;139.07;48.65;;;;;;;;;;6239128;28;20045;-60
2022/01/23 19:40:36;;;;;;;134.75;49.47;;;;;;;;;;6244355;28;20424;-62
2022/01/23 19:46:56;;;;;;;126.30;49.55;;;;;;;;;;6241299;28;20057;-65
2022/01/23 19:49:58;;;;;;;136.82;51.53;;;;;;;;;;6242763;28;20139;-63
2022/01/23 19:52:59;;;;;;;130.88;49.85;;;;;;;;;;6242161;28;20051;-62
2022/01/23 19:56:00;;;;;;;139.15;49.78;;;;;;;;;;6241110;28;20037;-61
2022/01/23 19:59:01;;;;;;;148.32;48.55;;;;;;;;;;6237735;28;20053;-61
2022/01/23 20:02:06;;;;;;;141.40;49.85;;;;;;;;;;6244915;28;20057;-64
2022/01/23 20:05:08;;;;;;;145.35;51.67;;;;;;;;;;6239002;28;21305;-61
2022/01/23 20:08:11;;;;;;;167.73;58.83;;;;;;;;;;6242549;28;20054;-61
2022/01/23 20:12:43;;;;;;;180.68;62.88;;;;;;;;;;6247949;28;20453;-63
2022/01/23 20:14:39;;;;;;;185.98;67.82;;;;;;;;;;6241493;28;20807;-62
2022/01/23 20:17:41;;;;;;;211.23;75.28;;;;;;;;;;6242437;28;20121;-65
2022/01/23 20:20:43;;;;;;;218.73;74.65;;;;;;;;;;6242394;28;20507;-63
2022/01/23 20:23:44;;;;;;;222.75;80.03;;;;;;;;;;6242785;28;20064;-63
2022/01/23 20:26:45;;;;;;;157.13;56.40;;;;;;;;;;6241453;28;20946;-62
2022/01/23 20:29:46;;;;;;;191.80;68.72;;;;;;;;;;6237929;28;20045;-63
2022/01/23 20:32:48;;;;;;;201.13;68.20;;;;;;;;;;6245808;28;20041;-61
2022/01/23 20:35:49;;;;;;;203.43;69.20;;;;;;;;;;6236385;28;20140;-64
2022/01/23 20:38:53;;;;;;;221.13;73.18;;;;;;;;;;6236714;28;20041;-63
2022/01/23 20:41:54;;;;;;;287.70;90.53;;;;;;;;;;6240737;28;20069;-62
2022/01/23 20:44:55;;;;;;;253.07;83.07;;;;;;;;;;6229107;28;21067;-62
2022/01/23 20:47:56;;;;;;;275.45;86.57;;;;;;;;;;6235180;28;20050;-62
2022/01/23 20:50:59;;;;;;;321.80;98.35;;;;;;;;;;6231322;28;20504;-61
2022/01/23 20:54:01;;;;;;;302.35;90.20;;;;;;;;;;6231200;28;21190;-63
2022/01/23 20:57:03;;;;;;;293.97;92.77;;;;;;;;;;6233033;28;20718;-62
2022/01/23 21:00:05;;;;;;;273.83;90.03;;;;;;;;;;6231475;28;20049;-61
2022/01/23 21:03:06;;;;;;;290.80;89.07;;;;;;;;;;6242848;28;20053;-62
2022/01/23 21:06:07;;;;;;;279.80;89.28;;;;;;;;;;6244738;28;20100;-64
2022/01/23 21:09:10;;;;;;;322.97;100.47;;;;;;;;;;6236074;28;20108;-62
2022/01/23 21:12:12;;;;;;;305.27;96.50;;;;;;;;;;6233288;28;20405;-62
2022/01/23 21:41:14;;;;;;;356.02;106.82;;;;;;;;;;6242800;28;20486;-63